Blue Springs, Arkansas
Current Conditions -  °F | °C
As of 6:53 PM on Saturday 22 Nov 2014 (Local Time) from KHOT Reporting Station
Overcast Overcast  
Wind Chill: 60°   Ceiling: 4900
Heat Index: 60°   Visibility: 10mi
Dew Point: 53°   Wind: 7mph
Humidity: 78%   Direction: 90°E
Pressure: 29.95"   Gusts: NA
Location:  34.5331°N, 93.0035°W
Report Text: KHOT 230053Z AUTO 09006KT 10SM FEW032 OVC049 16/12 A2995 RMK AO2 SLP141 T01560117
Loading
Personal Weather Stations






























Interactive Weather Map New forecast layout! Learn more

10-Day Weather Forecast

Advertisements
Track Severe Weather on mobile